Caribe Navigator — V2PW6 — position and weather

sailwx.info

Track history (hours):
 
Tides and Currents Weather Stations Pressure Air Temp Water Temp Dewpoint Dewpoint Depression Visibility Wind Speed Wind Dir Waves Ship Positions

Caribe Navigator

Last reported at 2016-May-04 11:32 UTC. Time now 2016-May-04 11:41 UTC.
Position N 26°05' W 080°07'.

Length 100 m; draft 5.2 m.

Type: Cargo ship. MMSI: 305289000.

Date/timePositionNaut miles runAvg speedWind from/ knotsBaromVisibWave heightAir tempDewpointWater temp
2016-May-04 11:32N 26°05' W 080°07'2 1.8
2016-May-04 10:33N 26°06' W 080°05'3 2.7
2016-May-04 09:32N 26°08' W 080°04'0 0.0
2016-May-04 08:32N 26°08' W 080°04'0 0.0
2016-May-04 07:32N 26°08' W 080°04'0 0.0
2016-May-04 06:32N 26°08' W 080°04'0 0.0
2016-May-04 05:32N 26°08' W 080°04'0 0.0
2016-May-04 04:32N 26°08' W 080°04'0 0.0
2016-May-04 03:32N 26°08' W 080°04'0 0.0
2016-May-04 02:32N 26°08' W 080°04'0 0.0
2016-May-04 01:32N 26°08' W 080°04'0 0.0
2016-May-04 00:32N 26°08' W 080°04'1 1.3
2016-May-03 23:25N 26°07' W 080°05'0 0.1
2016-May-03 22:28N 26°07' W 080°05'0 0.0
2016-May-03 21:28N 26°07' W 080°05'4 4.1
2016-May-03 20:33N 26°03' W 080°04'1717.4
2016-May-03 19:33N 25°46' W 080°06'3 0.3
2016-May-03 10:25N 25°46' W 080°09'8 9.7
2016-May-03 09:33N 25°45' W 079°60'  
2016-Apr-28 22:22N 25°38' W 080°01'5 6.7
2016-Apr-28 21:33N 25°43' W 080°01'9 8.8
2016-Apr-28 20:33N 25°52' W 080°03'10 9.8
2016-Apr-28 19:33N 26°02' W 080°04'5 4.8
2016-Apr-28 18:33N 26°05' W 080°07'0 0.0
2016-Apr-28 17:22N 26°05' W 080°07'0 0.0
2016-Apr-28 16:25N 26°05' W 080°07'0 0.0
2016-Apr-28 15:25N 26°05' W 080°07'0 0.0
2016-Apr-28 14:25N 26°05' W 080°07'0 0.0
2016-Apr-28 13:25N 26°05' W 080°07'0 0.0
2016-Apr-28 12:25N 26°05' W 080°07'0 0.0
2016-Apr-28 11:28N 26°05' W 080°07'0 0.0
2016-Apr-28 10:28N 26°05' W 080°07'0 0.0
2016-Apr-28 09:28N 26°05' W 080°07'0 0.0
2016-Apr-28 08:28N 26°05' W 080°07'0 0.0
2016-Apr-28 07:27N 26°05' W 080°07'0 0.0
2016-Apr-28 06:30N 26°05' W 080°07'0 0.0
2016-Apr-28 05:30N 26°05' W 080°07'0 0.0
2016-Apr-28 04:30N 26°05' W 080°07'0 0.0
2016-Apr-28 03:30N 26°05' W 080°07'0 0.0
2016-Apr-28 02:30N 26°05' W 080°07'0 0.0
2016-Apr-28 01:33N 26°05' W 080°07'0 0.0
2016-Apr-28 00:33N 26°05' W 080°07'0 0.0
2016-Apr-27 23:33N 26°05' W 080°07'0 0.0
2016-Apr-27 22:33N 26°05' W 080°07'0 0.0
2016-Apr-27 21:33N 26°05' W 080°07'0 0.0
2016-Apr-27 20:33N 26°05' W 080°07'0 0.0
2016-Apr-27 19:33N 26°05' W 080°07'0 0.0
2016-Apr-27 18:33N 26°05' W 080°07'0 0.0
2016-Apr-27 17:21N 26°05' W 080°07'0 0.0
2016-Apr-27 16:33N 26°05' W 080°07'0 0.0
2016-Apr-27 15:33N 26°05' W 080°07'0 0.0
2016-Apr-27 14:33N 26°05' W 080°07'0 0.0
2016-Apr-27 13:33N 26°05' W 080°07'0 0.0
2016-Apr-27 12:24N 26°05' W 080°07'0 0.0
2016-Apr-27 11:24N 26°05' W 080°07'0 0.0
2016-Apr-27 10:27N 26°05' W 080°07'0 0.0
2016-Apr-27 09:27N 26°05' W 080°07'0 0.0
2016-Apr-27 08:27N 26°05' W 080°07'0 0.0
2016-Apr-27 07:27N 26°05' W 080°07'0 0.0
2016-Apr-27 06:27N 26°05' W 080°07'0 0.0
2016-Apr-27 05:30N 26°05' W 080°07'0 0.0
2016-Apr-27 04:30N 26°05' W 080°07'0 0.0
2016-Apr-27 03:30N 26°05' W 080°07'0 0.0
2016-Apr-27 02:30N 26°05' W 080°07'0 0.0
2016-Apr-27 01:30N 26°05' W 080°07'0 0.0
2016-Apr-27 00:33N 26°05' W 080°07'0 0.0
2016-Apr-26 23:33N 26°05' W 080°07'4 4.0
2016-Apr-26 22:33N 26°03' W 080°04'6 6.5
2016-Apr-26 21:34N 25°56' W 080°04'7 6.8
2016-Apr-26 20:33N 25°50' W 080°04'7 0.7
2016-Apr-26 10:33N 25°46' W 080°10'9 9.5
2016-Apr-26 09:33N 25°44' W 079°60'  
Track history (hours):
 
Tides and Currents Weather Stations Pressure Air Temp Water Temp Dewpoint Dewpoint Depression Visibility Wind Speed Wind Dir Waves Ship Positions

Caribe Navigator

Last reported at 2016-May-04 11:32 UTC. Time now 2016-May-04 11:41 UTC.
Position N 26°05' W 080°07'.

Length 100 m; draft 5.2 m.

Type: Cargo ship. MMSI: 305289000.

Date/timePositionNaut miles runAvg speedWind from/ knotsBaromVisibWave heightAir tempDewpointWater temp
2016-May-04 11:32N 26°05' W 080°07'2 1.8
2016-May-04 10:33N 26°06' W 080°05'3 2.7
2016-May-04 09:32N 26°08' W 080°04'0 0.0
2016-May-04 08:32N 26°08' W 080°04'0 0.0
2016-May-04 07:32N 26°08' W 080°04'0 0.0
2016-May-04 06:32N 26°08' W 080°04'0 0.0
2016-May-04 05:32N 26°08' W 080°04'0 0.0
2016-May-04 04:32N 26°08' W 080°04'0 0.0
2016-May-04 03:32N 26°08' W 080°04'0 0.0
2016-May-04 02:32N 26°08' W 080°04'0 0.0
2016-May-04 01:32N 26°08' W 080°04'0 0.0
2016-May-04 00:32N 26°08' W 080°04'1 1.3
2016-May-03 23:25N 26°07' W 080°05'0 0.1
2016-May-03 22:28N 26°07' W 080°05'0 0.0
2016-May-03 21:28N 26°07' W 080°05'4 4.1
2016-May-03 20:33N 26°03' W 080°04'1717.4
2016-May-03 19:33N 25°46' W 080°06'3 0.3
2016-May-03 10:25N 25°46' W 080°09'8 9.7
2016-May-03 09:33N 25°45' W 079°60'  
2016-Apr-28 22:22N 25°38' W 080°01'5 6.7
2016-Apr-28 21:33N 25°43' W 080°01'9 8.8
2016-Apr-28 20:33N 25°52' W 080°03'10 9.8
2016-Apr-28 19:33N 26°02' W 080°04'5 4.8
2016-Apr-28 18:33N 26°05' W 080°07'0 0.0
2016-Apr-28 17:22N 26°05' W 080°07'0 0.0
2016-Apr-28 16:25N 26°05' W 080°07'0 0.0
2016-Apr-28 15:25N 26°05' W 080°07'0 0.0
2016-Apr-28 14:25N 26°05' W 080°07'0 0.0
2016-Apr-28 13:25N 26°05' W 080°07'0 0.0
2016-Apr-28 12:25N 26°05' W 080°07'0 0.0
2016-Apr-28 11:28N 26°05' W 080°07'0 0.0
2016-Apr-28 10:28N 26°05' W 080°07'0 0.0
2016-Apr-28 09:28N 26°05' W 080°07'0 0.0
2016-Apr-28 08:28N 26°05' W 080°07'0 0.0
2016-Apr-28 07:27N 26°05' W 080°07'0 0.0
2016-Apr-28 06:30N 26°05' W 080°07'0 0.0
2016-Apr-28 05:30N 26°05' W 080°07'0 0.0
2016-Apr-28 04:30N 26°05' W 080°07'0 0.0
2016-Apr-28 03:30N 26°05' W 080°07'0 0.0
2016-Apr-28 02:30N 26°05' W 080°07'0 0.0
2016-Apr-28 01:33N 26°05' W 080°07'0 0.0
2016-Apr-28 00:33N 26°05' W 080°07'0 0.0
2016-Apr-27 23:33N 26°05' W 080°07'0 0.0
2016-Apr-27 22:33N 26°05' W 080°07'0 0.0
2016-Apr-27 21:33N 26°05' W 080°07'0 0.0
2016-Apr-27 20:33N 26°05' W 080°07'0 0.0
2016-Apr-27 19:33N 26°05' W 080°07'0 0.0
2016-Apr-27 18:33N 26°05' W 080°07'0 0.0
2016-Apr-27 17:21N 26°05' W 080°07'0 0.0
2016-Apr-27 16:33N 26°05' W 080°07'0 0.0
2016-Apr-27 15:33N 26°05' W 080°07'0 0.0
2016-Apr-27 14:33N 26°05' W 080°07'0 0.0
2016-Apr-27 13:33N 26°05' W 080°07'0 0.0
2016-Apr-27 12:24N 26°05' W 080°07'0 0.0
2016-Apr-27 11:24N 26°05' W 080°07'0 0.0
2016-Apr-27 10:27N 26°05' W 080°07'0 0.0
2016-Apr-27 09:27N 26°05' W 080°07'0 0.0
2016-Apr-27 08:27N 26°05' W 080°07'0 0.0
2016-Apr-27 07:27N 26°05' W 080°07'0 0.0
2016-Apr-27 06:27N 26°05' W 080°07'0 0.0
2016-Apr-27 05:30N 26°05' W 080°07'0 0.0
2016-Apr-27 04:30N 26°05' W 080°07'0 0.0
2016-Apr-27 03:30N 26°05' W 080°07'0 0.0
2016-Apr-27 02:30N 26°05' W 080°07'0 0.0
2016-Apr-27 01:30N 26°05' W 080°07'0 0.0
2016-Apr-27 00:33N 26°05' W 080°07'0 0.0
2016-Apr-26 23:33N 26°05' W 080°07'4 4.0
2016-Apr-26 22:33N 26°03' W 080°04'6 6.5
2016-Apr-26 21:34N 25°56' W 080°04'7 6.8
2016-Apr-26 20:33N 25°50' W 080°04'7 0.7
2016-Apr-26 10:33N 25°46' W 080°10'9 9.5
2016-Apr-26 09:33N 25°44' W 079°60'  

Dump ship's entire track history